createdAt,value
2019-04-20T00:00:37.137Z,6.80
2019-04-20T00:02:33.747Z,6.10
2019-04-20T00:04:37.009Z,6.63
2019-04-20T00:06:46.350Z,6.73
2019-04-20T00:08:44.403Z,7.10
2019-04-20T00:10:55.066Z,7.23
2019-04-20T00:13:03.833Z,6.50
2019-04-20T00:14:54.203Z,7.07
2019-04-20T00:16:56.872Z,6.27
2019-04-20T00:19:01.813Z,6.90
2019-04-20T00:21:20.971Z,7.80
2019-04-20T00:23:33.714Z,7.17
2019-04-20T00:25:54.595Z,6.73
2019-04-20T00:28:19.893Z,6.67
2019-04-20T00:30:32.655Z,7.47
2019-04-20T00:32:20.053Z,7.37
2019-04-20T00:34:24.157Z,6.47
2019-04-20T00:36:18.079Z,7.57
2019-04-20T00:38:21.021Z,7.03
2019-04-20T00:40:23.703Z,6.90
2019-04-20T00:42:34.015Z,8.10
2019-04-20T00:44:34.207Z,7.07
2019-04-20T00:46:48.671Z,7.23
2019-04-20T00:48:46.231Z,7.53
2019-04-20T00:50:57.222Z,7.27
2019-04-20T00:52:54.208Z,7.90
2019-04-20T00:54:47.369Z,6.87
2019-04-20T00:56:49.841Z,7.77
2019-04-20T00:59:06.157Z,7.57
2019-04-20T01:01:13.047Z,7.13
2019-04-20T01:03:14.443Z,7.73
2019-04-20T01:05:20.313Z,7.07
2019-04-20T01:07:37.138Z,7.60
2019-04-20T01:10:04.993Z,7.70
2019-04-20T01:12:13.638Z,7.90
2019-04-20T01:14:13.906Z,7.33
2019-04-20T01:16:25.288Z,7.63
2019-04-20T01:18:17.797Z,7.40
2019-04-20T01:20:22.730Z,7.07
2019-04-20T01:22:25.623Z,7.30
2019-04-20T01:24:32.845Z,7.53
2019-04-20T01:26:31.246Z,8.60
2019-04-20T01:28:46.408Z,7.60
2019-04-20T01:30:43.242Z,8.70
2019-04-20T01:32:55.359Z,7.93
2019-04-20T01:34:55.209Z,7.53
2019-04-20T01:37:07.001Z,7.50
2019-04-20T01:39:05.493Z,7.37
2019-04-20T01:40:55.019Z,7.90
2019-04-20T01:42:57.286Z,8.23
2019-04-20T01:45:00.276Z,6.67
2019-04-20T01:47:05.450Z,7.53
2019-04-20T01:49:11.468Z,7.90
2019-04-20T01:51:16.482Z,7.60
2019-04-20T01:53:29.220Z,7.30
2019-04-20T01:55:34.646Z,7.70
2019-04-20T01:57:54.973Z,7.43
2019-04-20T01:59:52.097Z,8.10
2019-04-20T02:01:59.433Z,8.40
2019-04-20T02:04:25.027Z,8.13
2019-04-20T02:06:25.059Z,7.73
2019-04-20T02:08:29.404Z,7.33
2019-04-20T02:10:39.530Z,8.23
2019-04-20T02:12:36.276Z,7.37
2019-04-20T02:14:43.789Z,8.10
2019-04-20T02:16:47.351Z,8.73
2019-04-20T02:19:06.594Z,7.80
2019-04-20T02:21:05.154Z,8.17
2019-04-20T02:23:09.376Z,7.13
2019-04-20T02:24:55.300Z,7.60
2019-04-20T02:26:57.891Z,6.97
2019-04-20T02:29:24.639Z,6.50
2019-04-20T02:31:47.452Z,7.70
2019-04-20T02:33:43.071Z,7.17
2019-04-20T02:36:27.492Z,6.73
2019-04-20T02:38:48.947Z,7.10
2019-04-20T02:40:47.486Z,6.83
2019-04-20T02:44:49.179Z,6.00
2019-04-20T02:46:55.682Z,6.33
2019-04-20T02:49:06.174Z,7.30
2019-04-20T02:53:05.279Z,6.70
2019-04-20T02:57:37.870Z,6.83
2019-04-20T02:59:45.406Z,7.30
2019-04-20T03:01:39.312Z,6.70
2019-04-20T03:03:27.882Z,7.27
2019-04-20T03:05:33.158Z,7.27
2019-04-20T03:07:48.002Z,6.10
2019-04-20T03:09:50.167Z,6.60
2019-04-20T03:12:06.141Z,4.97
2019-04-20T03:13:59.280Z,5.20
2019-04-20T03:16:01.946Z,5.70
2019-04-20T03:18:12.388Z,6.00
2019-04-20T03:20:03.305Z,6.33
2019-04-20T03:22:13.688Z,6.33
2019-04-20T03:24:23.806Z,6.10
2019-04-20T03:26:24.483Z,7.07
2019-04-20T03:28:48.834Z,7.23
2019-04-20T03:31:33.422Z,7.37
2019-04-20T03:33:28.645Z,7.03
2019-04-20T03:35:12.048Z,5.87
2019-04-20T03:37:13.163Z,7.23
2019-04-20T03:39:13.613Z,6.17
2019-04-20T03:41:09.528Z,6.70
2019-04-20T03:43:02.666Z,7.10
2019-04-20T03:45:09.761Z,7.70
2019-04-20T03:47:13.677Z,7.37
2019-04-20T03:49:37.914Z,7.10
2019-04-20T03:51:40.051Z,6.87
2019-04-20T03:53:46.749Z,7.43
2019-04-20T03:55:50.187Z,7.40
2019-04-20T03:58:05.286Z,6.80
2019-04-20T04:00:22.036Z,7.00
2019-04-20T04:03:00.429Z,6.40
2019-04-20T04:05:03.303Z,6.53
2019-04-20T04:06:50.919Z,7.10
2019-04-20T04:09:02.781Z,5.67
2019-04-20T04:11:12.329Z,4.70
2019-04-20T04:13:20.967Z,6.30
2019-04-20T04:15:23.166Z,5.90
2019-04-20T04:17:31.395Z,7.27
2019-04-20T04:19:33.638Z,6.23
2019-04-20T04:21:49.643Z,6.90
2019-04-20T04:23:54.286Z,7.10
2019-04-20T04:25:55.664Z,6.80
2019-04-20T04:28:01.375Z,7.03
2019-04-20T04:30:08.019Z,7.67
2019-04-20T04:32:23.817Z,7.10
2019-04-20T04:34:12.513Z,7.07
2019-04-20T04:36:15.302Z,8.07
2019-04-20T04:38:24.060Z,7.50
2019-04-20T04:40:31.609Z,7.77
2019-04-20T04:42:31.365Z,8.63
2019-04-20T04:44:26.611Z,7.67
2019-04-20T04:46:16.544Z,8.17
2019-04-20T04:48:25.185Z,7.90
2019-04-20T04:50:26.212Z,7.40
2019-04-20T04:52:37.729Z,7.47
2019-04-20T04:54:43.536Z,7.90
2019-04-20T04:56:35.447Z,7.23
2019-04-20T04:58:38.470Z,7.37
2019-04-20T05:00:40.845Z,8.27
2019-04-20T05:02:48.850Z,7.07
2019-04-20T05:05:25.467Z,7.67
2019-04-20T05:07:40.009Z,6.77
2019-04-20T05:09:29.614Z,6.13
2019-04-20T05:11:32.037Z,6.97
2019-04-20T05:13:42.805Z,7.00
2019-04-20T05:15:57.049Z,6.90
2019-04-20T05:18:02.079Z,7.27
2019-04-20T05:20:03.639Z,5.87
2019-04-20T05:22:15.965Z,6.27
2019-04-20T05:24:22.640Z,6.53
2019-04-20T05:26:42.733Z,6.63
2019-04-20T05:28:33.428Z,7.97
2019-04-20T05:30:28.784Z,9.03
2019-04-20T05:32:41.719Z,7.60
2019-04-20T05:35:02.471Z,7.90
2019-04-20T05:36:57.820Z,7.43
2019-04-20T05:39:11.171Z,8.30
2019-04-20T05:41:04.256Z,7.27
2019-04-20T05:43:15.534Z,7.90
2019-04-20T05:45:17.802Z,7.70
2019-04-20T05:47:21.404Z,7.50
2019-04-20T05:49:26.901Z,7.20
2019-04-20T05:51:46.005Z,7.23
2019-04-20T05:53:40.998Z,6.50
2019-04-20T05:55:41.634Z,7.00
2019-04-20T05:57:43.775Z,7.60
2019-04-20T05:59:52.169Z,6.40
2019-04-20T06:01:54.297Z,7.10
2019-04-20T06:03:49.986Z,6.83
2019-04-20T06:06:03.859Z,7.20
2019-04-20T06:07:59.151Z,6.43
2019-04-20T06:10:07.315Z,6.50
2019-04-20T06:12:23.921Z,7.10
2019-04-20T06:14:17.155Z,7.00
2019-04-20T06:16:40.908Z,6.67
2019-04-20T06:18:44.320Z,6.43
2019-04-20T06:20:58.932Z,6.57
2019-04-20T06:23:09.421Z,5.53
2019-04-20T06:25:19.590Z,6.50
2019-04-20T06:27:28.239Z,6.13
2019-04-20T06:29:07.067Z,6.20
2019-04-20T06:31:22.704Z,6.63
2019-04-20T06:34:11.358Z,11.13
2019-04-20T06:38:23.202Z,6.63
2019-04-20T06:40:23.967Z,6.47
2019-04-20T06:44:14.775Z,6.00
2019-04-20T06:46:16.178Z,5.87
2019-04-20T06:48:29.477Z,5.60
2019-04-20T06:50:22.655Z,6.23
2019-04-20T06:52:39.776Z,5.77
2019-04-20T06:55:08.728Z,6.00
2019-04-20T06:57:10.061Z,6.40
2019-04-20T06:59:21.379Z,6.70
2019-04-20T07:01:17.158Z,6.67
2019-04-20T07:03:40.469Z,6.40
2019-04-20T07:05:43.739Z,5.97
2019-04-20T07:07:29.383Z,5.83
2019-04-20T07:11:35.867Z,5.90
2019-04-20T07:13:33.104Z,6.57
2019-04-20T07:15:46.526Z,6.13
2019-04-20T07:18:16.272Z,5.90
2019-04-20T07:20:05.991Z,6.07
2019-04-20T07:22:33.610Z,5.83
2019-04-20T07:24:26.830Z,6.70
2019-04-20T07:26:29.208Z,6.23
2019-04-20T07:28:32.571Z,5.63
2019-04-20T07:30:35.244Z,6.77
2019-04-20T07:32:43.820Z,6.90
2019-04-20T07:34:41.359Z,6.60
2019-04-20T07:36:51.536Z,5.97
2019-04-20T07:39:04.256Z,5.27
2019-04-20T07:40:50.360Z,6.17
2019-04-20T07:42:55.359Z,6.37
2019-04-20T07:45:01.271Z,6.17
2019-04-20T07:47:07.286Z,6.10
2019-04-20T07:49:07.326Z,5.80
2019-04-20T07:51:02.821Z,5.80
2019-04-20T07:53:08.711Z,6.27
2019-04-20T07:55:33.599Z,5.73
2019-04-20T07:57:19.449Z,5.27
2019-04-20T07:59:17.817Z,6.23
2019-04-20T08:01:44.900Z,5.93
2019-04-20T08:03:50.346Z,6.23
2019-04-20T08:06:11.536Z,6.00
2019-04-20T08:08:28.154Z,5.67
2019-04-20T08:10:32.446Z,4.90
2019-04-20T08:12:51.571Z,6.10
2019-04-20T08:15:01.449Z,6.30
2019-04-20T08:18:55.196Z,5.80
2019-04-20T08:20:58.405Z,5.83
2019-04-20T08:23:04.972Z,5.73
2019-04-20T08:25:00.567Z,6.40
2019-04-20T08:26:59.999Z,6.13
2019-04-20T08:29:18.861Z,6.17
2019-04-20T08:31:39.829Z,5.40
2019-04-20T08:34:04.722Z,5.90
2019-04-20T08:36:01.218Z,6.00
2019-04-20T08:38:24.139Z,5.20
2019-04-20T08:40:06.883Z,5.83
2019-04-20T08:42:07.485Z,5.93
2019-04-20T08:46:16.064Z,5.77
2019-04-20T08:48:27.568Z,5.50
2019-04-20T08:50:24.925Z,5.70
2019-04-20T08:52:48.324Z,5.90
2019-04-20T08:54:26.380Z,5.60
2019-04-20T08:56:25.964Z,5.70
2019-04-20T08:58:16.378Z,6.00
2019-04-20T09:00:28.819Z,5.70
2019-04-20T09:02:23.777Z,6.23
2019-04-20T09:04:37.123Z,6.30
2019-04-20T09:06:39.993Z,6.40
2019-04-20T09:08:46.659Z,6.27
2019-04-20T09:10:54.100Z,6.20
2019-04-20T09:12:54.714Z,6.47
2019-04-20T09:14:44.524Z,6.10
2019-04-20T09:16:54.562Z,5.57
2019-04-20T09:19:00.528Z,5.00
2019-04-20T09:21:05.724Z,5.37
2019-04-20T09:23:16.665Z,5.00
2019-04-20T09:25:42.706Z,5.73
2019-04-20T09:27:21.839Z,6.30
2019-04-20T09:29:27.142Z,9.80
2019-04-20T09:31:35.647Z,4.90
2019-04-20T09:33:58.763Z,4.77
2019-04-20T09:35:57.936Z,4.83
2019-04-20T09:38:11.838Z,5.40
2019-04-20T09:40:46.104Z,5.47
2019-04-20T09:42:25.187Z,4.37
2019-04-20T09:44:33.655Z,4.30
2019-04-20T09:46:39.335Z,4.60
2019-04-20T09:48:40.788Z,4.70
2019-04-20T09:50:59.424Z,5.00
2019-04-20T09:52:59.550Z,5.60
2019-04-20T09:54:59.028Z,5.17
2019-04-20T09:57:11.730Z,4.80
2019-04-20T09:59:12.250Z,4.57
2019-04-20T10:01:11.211Z,5.40
2019-04-20T10:03:00.321Z,4.80
2019-04-20T10:05:02.141Z,4.60
2019-04-20T10:07:09.602Z,5.30
2019-04-20T10:09:07.438Z,5.17
2019-04-20T10:11:09.749Z,5.40
2019-04-20T10:13:11.484Z,5.13
2019-04-20T10:15:19.096Z,4.93
2019-04-20T10:17:17.925Z,7.27
2019-04-20T10:19:26.645Z,5.03
2019-04-20T10:21:25.649Z,4.97
2019-04-20T10:23:27.473Z,6.20
2019-04-20T10:25:29.138Z,6.10
2019-04-20T10:27:30.805Z,5.33
2019-04-20T10:29:33.591Z,5.70
2019-04-20T10:31:42.495Z,5.27
2019-04-20T10:33:39.610Z,5.03
2019-04-20T10:35:41.432Z,5.63
2019-04-20T10:37:49.337Z,5.07
2019-04-20T10:39:52.346Z,4.83
2019-04-20T10:41:57.637Z,5.33
2019-04-20T10:43:58.751Z,5.57
2019-04-20T10:46:00.561Z,5.87
2019-04-20T10:48:03.403Z,5.30
2019-04-20T10:50:05.526Z,6.47
2019-04-20T10:52:07.635Z,5.50
2019-04-20T10:54:09.917Z,5.70
2019-04-20T10:56:11.713Z,5.97
2019-04-20T10:58:13.663Z,6.30
2019-04-20T11:00:15.647Z,7.10
2019-04-20T11:02:17.513Z,6.60
2019-04-20T11:04:19.177Z,6.67
2019-04-20T11:06:20.846Z,7.03
2019-04-20T11:08:22.809Z,6.80
2019-04-20T11:10:28.558Z,7.50
2019-04-20T11:12:28.765Z,7.87
2019-04-20T11:14:34.557Z,8.17
2019-04-20T11:16:34.237Z,7.60
2019-04-20T11:18:35.896Z,7.10
2019-04-20T11:20:37.561Z,8.70
2019-04-20T11:22:40.190Z,8.97
2019-04-20T11:24:42.101Z,8.90
2019-04-20T11:26:45.061Z,8.83
2019-04-20T11:28:48.343Z,8.90
2019-04-20T11:30:50.179Z,8.80
2019-04-20T11:32:52.010Z,8.70
2019-04-20T11:34:53.741Z,8.37
2019-04-20T11:36:55.401Z,7.80
2019-04-20T11:38:57.073Z,7.97
2019-04-20T11:41:07.169Z,7.53
2019-04-20T11:43:03.754Z,8.80
2019-04-20T11:45:06.732Z,8.73
2019-04-20T11:47:08.613Z,9.07
2019-04-20T11:49:10.822Z,9.13
2019-04-20T11:51:13.655Z,8.90
2019-04-20T11:53:15.665Z,9.00
2019-04-20T11:55:18.163Z,8.00
2019-04-20T11:57:21.327Z,8.93
2019-04-20T11:59:23.388Z,8.10
2019-04-20T12:01:58.997Z,7.50
2019-04-20T12:04:04.140Z,7.80
2019-04-20T12:06:04.669Z,7.93
2019-04-20T12:08:07.006Z,7.63
2019-04-20T12:10:14.856Z,7.10
2019-04-20T12:12:24.391Z,8.13
2019-04-20T12:14:16.661Z,7.93
2019-04-20T12:16:19.382Z,8.00
2019-04-20T12:18:21.295Z,7.50
2019-04-20T12:20:22.957Z,8.00
2019-04-20T12:22:24.621Z,8.13
2019-04-20T12:24:26.294Z,7.37
2019-04-20T12:26:29.039Z,7.43
2019-04-20T12:28:31.591Z,8.27
2019-04-20T12:30:33.558Z,8.07
2019-04-20T12:32:42.980Z,7.10
2019-04-20T12:34:39.336Z,7.90
2019-04-20T12:36:41.048Z,7.43
2019-04-20T12:38:43.312Z,7.73
2019-04-20T12:40:46.177Z,7.57
2019-04-20T12:42:48.821Z,8.20
2019-04-20T12:44:50.731Z,7.97
2019-04-20T12:46:52.393Z,7.67
2019-04-20T12:48:54.077Z,7.37
2019-04-20T12:50:55.742Z,7.20
2019-04-20T12:52:58.821Z,6.67
2019-04-20T12:55:02.744Z,6.67
2019-04-20T12:57:04.665Z,7.80
2019-04-20T12:59:07.475Z,7.13
2019-04-20T13:01:10.116Z,8.13
2019-04-20T13:03:12.065Z,7.40
2019-04-20T13:05:13.762Z,7.93
2019-04-20T13:07:15.689Z,7.67
2019-04-20T13:09:18.666Z,7.27
2019-04-20T13:11:30.957Z,6.90
2019-04-20T13:13:56.657Z,8.23
2019-04-20T13:16:08.206Z,6.70
2019-04-20T13:18:11.504Z,6.87
2019-04-20T13:20:14.093Z,6.90
2019-04-20T13:22:17.072Z,7.10
2019-04-20T13:24:18.937Z,7.80
2019-04-20T13:26:20.603Z,7.07
2019-04-20T13:28:23.147Z,6.63
2019-04-20T13:30:25.902Z,6.40
2019-04-20T13:32:27.722Z,6.70
2019-04-20T13:34:29.470Z,6.13
2019-04-20T13:36:32.543Z,6.00
2019-04-20T13:38:34.557Z,6.70
2019-04-20T13:40:37.593Z,6.83
2019-04-20T13:42:39.700Z,6.13
2019-04-20T13:44:41.405Z,7.17
2019-04-20T13:46:43.167Z,6.70
2019-04-20T13:48:44.881Z,6.37
2019-04-20T13:50:46.610Z,7.50
2019-04-20T13:52:48.908Z,5.80
2019-04-20T13:54:51.770Z,5.77
2019-04-20T13:56:55.725Z,5.60
2019-04-20T13:59:01.911Z,6.30
2019-04-20T14:01:23.397Z,5.83
2019-04-20T14:03:27.011Z,6.17
2019-04-20T14:05:33.088Z,5.53
2019-04-20T14:07:35.557Z,6.07
2019-04-20T14:09:37.437Z,6.53
2019-04-20T14:11:39.280Z,5.60
2019-04-20T14:13:47.182Z,5.63
2019-04-20T14:15:45.188Z,5.30
2019-04-20T14:17:46.971Z,6.23
2019-04-20T14:19:49.225Z,5.50
2019-04-20T14:21:52.345Z,5.30
2019-04-20T14:23:54.921Z,5.47
2019-04-20T14:25:56.809Z,5.07
2019-04-20T14:27:58.473Z,4.73
2019-04-20T14:30:01.355Z,5.20
2019-04-20T14:32:05.089Z,4.90
2019-04-20T14:34:06.909Z,5.17
2019-04-20T14:36:08.819Z,5.00
2019-04-20T14:38:12.953Z,4.20
2019-04-20T14:40:14.638Z,4.27
2019-04-20T14:42:27.843Z,3.83
2019-04-20T14:44:19.965Z,4.13
2019-04-20T14:46:22.909Z,4.37
2019-04-20T14:48:24.968Z,4.13
2019-04-20T14:50:27.573Z,4.13
2019-04-20T14:52:29.435Z,4.50
2019-04-20T14:54:31.804Z,3.97
2019-04-20T14:56:33.882Z,4.10
2019-04-20T14:58:58.101Z,4.67
2019-04-20T15:01:04.841Z,4.00
2019-04-20T15:03:28.315Z,4.17
2019-04-20T15:05:30.762Z,4.80
2019-04-20T15:07:32.993Z,5.10
2019-04-20T15:09:38.403Z,4.97
2019-04-20T15:11:41.645Z,4.73
2019-04-20T15:13:42.617Z,4.17
2019-04-20T15:15:44.401Z,3.70
2019-04-20T15:18:05.842Z,4.13
2019-04-20T15:20:25.629Z,3.83
2019-04-20T15:22:47.689Z,3.30
2019-04-20T15:24:49.473Z,3.20
2019-04-20T15:26:52.168Z,3.30
2019-04-20T15:28:54.539Z,3.00
2019-04-20T15:30:56.370Z,2.80
2019-04-20T15:32:59.068Z,3.10
2019-04-20T15:35:00.923Z,3.17
2019-04-20T15:37:04.359Z,3.10
2019-04-20T15:39:07.330Z,3.40
2019-04-20T15:41:12.107Z,3.10
2019-04-20T15:43:17.402Z,2.83
2019-04-20T15:45:16.736Z,2.80
2019-04-20T15:47:18.404Z,3.10
2019-04-20T15:49:20.066Z,2.67
2019-04-20T15:51:21.823Z,2.17
2019-04-20T15:53:23.894Z,2.53
2019-04-20T15:55:31.017Z,2.73
2019-04-20T15:57:31.301Z,2.73
2019-04-20T15:59:34.655Z,2.60
2019-04-20T16:01:47.173Z,2.80
2019-04-20T16:03:53.569Z,2.80
2019-04-20T16:05:58.925Z,2.67
2019-04-20T16:08:18.356Z,2.37
2019-04-20T16:10:21.254Z,2.57
2019-04-20T16:12:24.637Z,2.10
2019-04-20T16:14:27.907Z,2.63
2019-04-20T16:16:30.003Z,2.70
2019-04-20T16:18:32.849Z,2.70
2019-04-20T16:20:49.713Z,2.47
2019-04-20T16:22:38.534Z,2.00
2019-04-20T16:24:46.764Z,2.00
2019-04-20T16:27:27.658Z,2.43
2019-04-20T16:29:29.793Z,2.80
2019-04-20T16:31:32.696Z,2.57
2019-04-20T16:33:34.595Z,2.40
2019-04-20T16:35:36.384Z,2.87
2019-04-20T16:37:38.483Z,2.43
2019-04-20T16:39:40.725Z,2.67
2019-04-20T16:41:42.533Z,2.60
2019-04-20T16:43:46.209Z,2.30
2019-04-20T16:45:47.821Z,2.50
2019-04-20T16:47:50.196Z,2.53
2019-04-20T16:49:52.866Z,2.97
2019-04-20T16:51:54.863Z,2.13
2019-04-20T16:53:56.761Z,2.50
2019-04-20T16:55:58.976Z,2.40
2019-04-20T16:58:01.738Z,2.20
2019-04-20T17:00:05.448Z,2.57
2019-04-20T17:02:08.557Z,2.67
2019-04-20T17:04:15.459Z,2.90
2019-04-20T17:06:14.361Z,3.67
2019-04-20T17:08:16.727Z,2.70
2019-04-20T17:10:20.076Z,2.50
2019-04-20T17:12:22.031Z,2.50
2019-04-20T17:14:23.934Z,2.93
2019-04-20T17:16:26.254Z,2.73
2019-04-20T17:18:27.921Z,2.77
2019-04-20T17:20:30.670Z,2.57
2019-04-20T17:22:32.813Z,3.20
2019-04-20T17:24:35.617Z,2.60
2019-04-20T17:26:47.165Z,2.70
2019-04-20T17:28:58.032Z,2.93
2019-04-20T17:31:07.091Z,3.10
2019-04-20T17:33:10.353Z,2.90
2019-04-20T17:35:21.974Z,2.70
2019-04-20T17:37:15.802Z,3.47
2019-04-20T17:39:27.763Z,2.77
2019-04-20T17:41:44.655Z,2.90
2019-04-20T17:43:34.370Z,3.30
2019-04-20T17:45:41.591Z,3.80
2019-04-20T17:47:55.949Z,3.27
2019-04-20T17:49:57.671Z,3.00
2019-04-20T17:52:05.006Z,3.30
2019-04-20T17:54:06.441Z,3.43
2019-04-20T17:56:07.487Z,3.27
2019-04-20T17:58:12.058Z,3.13
2019-04-20T18:00:19.456Z,3.00
2019-04-20T18:02:57.488Z,3.37
2019-04-20T18:05:09.255Z,3.07
2019-04-20T18:06:58.020Z,3.43
2019-04-20T18:09:05.288Z,2.83
2019-04-20T18:11:03.667Z,2.87
2019-04-20T18:13:08.675Z,2.97
2019-04-20T18:15:22.961Z,2.63
2019-04-20T18:17:29.344Z,2.53
2019-04-20T18:19:26.255Z,3.03
2019-04-20T18:21:30.847Z,3.47
2019-04-20T18:23:37.884Z,2.87
2019-04-20T18:26:01.117Z,3.10
2019-04-20T18:27:57.136Z,2.80
2019-04-20T18:30:04.066Z,3.20
2019-04-20T18:32:13.558Z,3.23
2019-04-20T18:34:22.694Z,3.27
2019-04-20T18:36:28.888Z,3.30
2019-04-20T18:38:30.586Z,2.83
2019-04-20T18:40:40.133Z,3.53
2019-04-20T18:42:38.884Z,3.23
2019-04-20T18:44:57.225Z,3.30
2019-04-20T18:47:09.489Z,3.47
2019-04-20T18:49:08.648Z,4.10
2019-04-20T18:50:49.053Z,3.57
2019-04-20T18:52:53.843Z,3.50
2019-04-20T18:54:57.409Z,3.40
2019-04-20T18:56:59.791Z,3.80
2019-04-20T18:59:03.000Z,3.50
2019-04-20T19:01:05.309Z,3.63
2019-04-20T19:03:15.974Z,4.07
2019-04-20T19:05:11.517Z,4.20
2019-04-20T19:07:14.167Z,3.63
2019-04-20T19:09:21.547Z,4.10
2019-04-20T19:11:21.626Z,3.67
2019-04-20T19:13:39.864Z,3.43
2019-04-20T19:16:04.314Z,4.00
2019-04-20T19:18:12.687Z,3.43
2019-04-20T19:20:14.108Z,3.80
2019-04-20T19:22:17.298Z,4.10
2019-04-20T19:24:21.251Z,4.27
2019-04-20T19:26:23.811Z,3.83
2019-04-20T19:28:33.314Z,3.77
2019-04-20T19:30:37.218Z,4.43
2019-04-20T19:32:45.015Z,3.93
2019-04-20T19:34:50.071Z,3.63
2019-04-20T19:36:57.153Z,4.20
2019-04-20T19:39:01.368Z,4.53
2019-04-20T19:40:58.299Z,4.10
2019-04-20T19:43:03.963Z,4.00
2019-04-20T19:45:25.223Z,4.83
2019-04-20T19:47:24.918Z,3.80
2019-04-20T19:49:19.757Z,4.00
2019-04-20T19:51:28.629Z,3.70
2019-04-20T19:53:32.211Z,4.93
2019-04-20T19:55:27.405Z,5.10
2019-04-20T19:57:40.770Z,4.93
2019-04-20T19:59:29.578Z,4.77
2019-04-20T20:01:24.539Z,4.43
2019-04-20T20:03:27.799Z,4.90
2019-04-20T20:05:33.805Z,5.03
2019-04-20T20:07:38.762Z,5.00
2019-04-20T20:09:40.443Z,4.53
2019-04-20T20:11:42.964Z,5.00
2019-04-20T20:13:48.490Z,5.80
2019-04-20T20:15:49.083Z,5.60
2019-04-20T20:18:12.753Z,6.40
2019-04-20T20:20:20.346Z,6.33
2019-04-20T20:22:09.384Z,5.70
2019-04-20T20:24:04.060Z,6.00
2019-04-20T20:26:09.017Z,5.80
2019-04-20T20:28:18.787Z,6.60
2019-04-20T20:30:23.118Z,6.30
2019-04-20T20:32:31.287Z,6.30
2019-04-20T20:34:30.254Z,6.53
2019-04-20T20:36:38.356Z,6.40
2019-04-20T20:38:37.079Z,5.40
2019-04-20T20:40:37.952Z,7.03
2019-04-20T20:42:54.012Z,6.37
2019-04-20T20:44:48.467Z,5.90
2019-04-20T20:46:55.137Z,6.30
2019-04-20T20:51:10.388Z,5.70
2019-04-20T20:53:05.043Z,6.33
2019-04-20T20:55:06.568Z,5.80
2019-04-20T20:57:07.460Z,5.70
2019-04-20T20:59:11.438Z,6.40
2019-04-20T21:01:12.874Z,6.23
2019-04-20T21:03:22.520Z,6.40
2019-04-20T21:05:15.748Z,5.83
2019-04-20T21:07:18.490Z,6.40
2019-04-20T21:09:20.793Z,5.60
2019-04-20T21:11:28.088Z,6.00
2019-04-20T21:13:34.552Z,6.70
2019-04-20T21:15:31.639Z,6.33
2019-04-20T21:17:47.516Z,5.80
2019-04-20T21:19:56.286Z,6.97
2019-04-20T21:21:49.954Z,6.70
2019-04-20T21:23:54.946Z,7.50
2019-04-20T21:26:12.756Z,7.03
2019-04-20T21:28:12.972Z,7.23
2019-04-20T21:30:26.106Z,7.73
2019-04-20T21:32:23.557Z,7.90
2019-04-20T21:34:26.044Z,9.10
2019-04-20T21:36:31.354Z,8.40
2019-04-20T21:38:35.865Z,8.03
2019-04-20T21:40:40.026Z,7.67
2019-04-20T21:42:48.345Z,8.57
2019-04-20T21:44:47.201Z,8.97
2019-04-20T21:46:51.162Z,8.00
2019-04-20T21:49:04.237Z,8.40
2019-04-20T21:51:08.614Z,8.50
2019-04-20T21:53:06.084Z,8.03
2019-04-20T21:55:01.281Z,8.43
2019-04-20T21:57:05.755Z,8.37
2019-04-20T21:59:18.506Z,8.33
2019-04-20T22:01:18.696Z,7.97
2019-04-20T22:03:15.491Z,8.63
2019-04-20T22:05:19.148Z,8.60
2019-04-20T22:07:20.889Z,7.90
2019-04-20T22:09:25.145Z,9.07
2019-04-20T22:11:27.190Z,8.60
2019-04-20T22:13:35.539Z,9.40
2019-04-20T22:15:35.007Z,7.63
2019-04-20T22:17:38.040Z,9.30
2019-04-20T22:19:48.954Z,9.07
2019-04-20T22:21:53.342Z,8.87
2019-04-20T22:24:05.407Z,9.10
2019-04-20T22:26:03.857Z,8.57
2019-04-20T22:27:57.023Z,9.37
2019-04-20T22:29:57.708Z,9.00
2019-04-20T22:32:08.874Z,8.90
2019-04-20T22:34:07.722Z,8.60
2019-04-20T22:36:09.241Z,9.83
2019-04-20T22:38:18.785Z,9.30
2019-04-20T22:40:25.804Z,8.37
2019-04-20T22:42:23.627Z,9.80
2019-04-20T22:44:28.350Z,12.60
2019-04-20T22:46:33.716Z,13.63
2019-04-20T22:48:33.306Z,15.63
2019-04-20T22:50:51.027Z,16.67
2019-04-20T22:52:50.205Z,16.07
2019-04-20T22:55:08.516Z,14.70
2019-04-20T22:56:57.157Z,14.33
2019-04-20T22:58:59.061Z,12.80
2019-04-20T23:00:57.784Z,12.57
2019-04-20T23:02:56.870Z,13.97
2019-04-20T23:04:58.537Z,13.37
2019-04-20T23:07:00.979Z,12.60
2019-04-20T23:09:08.111Z,12.90
2019-04-20T23:11:18.073Z,11.80
2019-04-20T23:13:13.763Z,12.83
2019-04-20T23:15:16.366Z,12.77
2019-04-20T23:17:27.003Z,16.30
2019-04-20T23:19:33.912Z,14.60
2019-04-20T23:21:25.882Z,14.20
2019-04-20T23:23:30.584Z,13.83
2019-04-20T23:25:31.347Z,13.93
2019-04-20T23:27:34.964Z,14.00
2019-04-20T23:29:40.022Z,13.60
2019-04-20T23:31:49.368Z,12.23
2019-04-20T23:33:44.124Z,10.80
2019-04-20T23:35:49.906Z,11.87
2019-04-20T23:37:50.592Z,10.93
2019-04-20T23:39:54.358Z,10.50
2019-04-20T23:42:00.423Z,10.43
2019-04-20T23:44:10.939Z,11.33
2019-04-20T23:46:31.355Z,11.03
2019-04-20T23:48:39.262Z,11.10
2019-04-20T23:50:54.133Z,10.77
2019-04-20T23:53:08.356Z,11.50
2019-04-20T23:54:51.315Z,14.47
2019-04-20T23:56:50.241Z,11.70
2019-04-20T23:58:56.126Z,12.50
